< < Back
Terminal Aerodrome Forecast


Current Version              Previous Versions:   1  2  3  4  5  6  7  8  9  

Terminal Aerodrome Forecast

707
FTUS42 KJAX 221100
TAFJAX
TAF
KJAX 221120Z 2212/2312 30005KT P6SM FEW040 SCT250
     FM222100 13007KT P6SM FEW050 SCT250
     FM230000 18003KT P6SM SCT250=



Latest METAR

411
SAUS80 KWBC 231700 RRA
MTRJAX
METAR KJAX 231656Z VRB05KT 10SM FEW045 BKN250 35/23 A2994 RMK AO2 SLP138
T03500233


USA.gov is the U.S. government's official web portal to all federal, state and local government web resources and services.